Cottonwood Heights, Utah
Current Conditions -  °F | °C
As of 11:53 AM on Monday 20 Oct 2014 (Local Time) from KSLC Reporting Station
Few Clouds Few Clouds  
Wind Chill: 71°   Ceiling: Unl
Heat Index: 71°   Visibility: 10mi
Dew Point: 38°   Wind: 13mph
Humidity: 30%   Direction: 150°SSE
Pressure: 30.03"   Gusts: NA
Location:  40.5945°N, 111.827°W
Report Text: KSLC 201753Z 15011KT 10SM FEW080 FEW110 22/03 A3003 RMK AO2 SLP134 ACSL DSNT SE T02170033 10217 20100 58005
Loading
Personal Weather Stations






























Interactive Weather Map New forecast layout! Learn more

10-Day Weather Forecast

Advertisements
Track Severe Weather on mobile